CheckWX is a tool to help pilots better visualize weather data.  It is not intended as a substitute for an official pre-flight weather briefing.

09:47:36 UTC

LJPZ TAF
Portoroz Airport
Portoroz, Slovenia
TAF LJPZ 140800Z 1409/1418 11005KT CAVOK BECMG 1409/1410 32005KT TEMPO 1413/1415 25005KT FEW020 BECMG 1415/1417 12005KT

Dec-14@
09:00 UTC

Dec-14 @ 09:00 UTC

Dec-14@
18:00 UTC

Dec-14 @ 18:00 UTC

TAF LJPZ 140800Z 1409/1418 11005KT CAVOK
Wind
  • 110° at 5 KTS
Conditions
No significant weather
Cloud Levels
  • No significant clouds

Dec-14@
09:00 UTC

Dec-14 @ 09:00 UTC

Dec-14@
15:00 UTC

Dec-14 @ 15:00 UTC

BECMG 1409/1410 32005KT

Becoming

Becoming Conditions expected by Sat, Dec 14, 2019 @ 10:00 UTC

Wind
  • 320° at 5 KTS
Conditions
No significant weather
Cloud Levels
  • No significant clouds

Dec-14@
13:00 UTC

Dec-14 @ 13:00 UTC

Dec-14@
15:00 UTC

Dec-14 @ 15:00 UTC

TEMPO 1413/1415 25005KT FEW020

Temporary

Temporary Changes expected for less than half the time period

Wind
  • 250° at 5 KTS
Cloud Levels
  • Few at 2,000' AGL

Dec-14@
15:00 UTC

Dec-14 @ 15:00 UTC

Dec-14@
18:00 UTC

Dec-14 @ 18:00 UTC

BECMG 1415/1417 12005KT

Becoming

Becoming Conditions expected by Sat, Dec 14, 2019 @ 17:00 UTC

Wind
  • 120° at 5 KTS
Conditions
No significant weather
Cloud Levels
  • No significant clouds